createdAt,value
2022-09-16T00:00:17.659Z,15.05
2022-09-16T00:02:40.861Z,9.43
2022-09-16T00:05:06.025Z,27.33
2022-09-16T00:07:30.652Z,13.80
2022-09-16T00:09:53.899Z,9.48
2022-09-16T00:12:17.031Z,13.02
2022-09-16T00:14:40.491Z,13.05
2022-09-16T00:17:03.649Z,16.33
2022-09-16T00:19:26.826Z,18.02
2022-09-16T00:21:51.735Z,21.42
2022-09-16T00:24:15.703Z,15.27
2022-09-16T00:26:39.966Z,12.38
2022-09-16T00:31:26.261Z,23.85
2022-09-16T00:33:49.463Z,10.68
2022-09-16T00:36:13.969Z,20.35
2022-09-16T00:38:38.562Z,15.52
2022-09-16T00:41:01.711Z,15.63
2022-09-16T00:43:24.972Z,14.90
2022-09-16T00:45:49.434Z,12.57
2022-09-16T00:48:15.732Z,18.25
2022-09-16T00:50:40.679Z,7.13
2022-09-16T00:53:03.846Z,18.30
2022-09-16T00:55:29.304Z,9.85
2022-09-16T00:57:52.487Z,8.45
2022-09-16T01:00:16.465Z,16.63
2022-09-16T01:02:39.659Z,9.57
2022-09-16T01:05:05.667Z,12.80
2022-09-16T01:07:32.678Z,8.18
2022-09-16T01:09:56.865Z,13.77
2022-09-16T01:12:21.420Z,16.13
2022-09-16T01:14:58.276Z,12.45
2022-09-16T01:17:28.140Z,10.43
2022-09-16T01:20:03.891Z,15.27
2022-09-16T01:22:35.790Z,19.08
2022-09-16T01:25:02.024Z,9.73
2022-09-16T01:27:50.545Z,17.65
2022-09-16T01:30:27.794Z,15.25
2022-09-16T01:32:57.680Z,8.90
2022-09-16T01:35:24.493Z,11.07
2022-09-16T01:37:51.525Z,13.73
2022-09-16T01:40:17.802Z,15.63
2022-09-16T01:42:42.987Z,11.75
2022-09-16T01:45:08.352Z,9.50
2022-09-16T01:47:35.060Z,12.05
2022-09-16T01:50:01.751Z,15.82
2022-09-16T01:52:26.402Z,14.70
2022-09-16T01:54:51.237Z,11.25
2022-09-16T01:57:17.700Z,7.65
2022-09-16T01:59:43.353Z,25.42
2022-09-16T02:02:09.080Z,14.57
2022-09-16T02:04:34.247Z,15.10
2022-09-16T02:06:58.831Z,7.00
2022-09-16T02:09:22.845Z,8.13
2022-09-16T02:11:46.126Z,11.10
2022-09-16T02:14:11.367Z,14.03
2022-09-16T02:16:37.001Z,6.35
2022-09-16T02:19:02.949Z,11.73
2022-09-16T02:21:26.663Z,12.60
2022-09-16T02:23:52.285Z,12.07
2022-09-16T02:26:17.547Z,14.00
2022-09-16T02:28:42.669Z,11.60
2022-09-16T02:31:07.805Z,13.75
2022-09-16T02:33:32.936Z,15.52
2022-09-16T02:35:56.368Z,12.95
2022-09-16T02:38:21.737Z,21.20
2022-09-16T02:40:48.194Z,12.52
2022-09-16T02:43:11.407Z,12.95
2022-09-16T02:45:38.366Z,11.18
2022-09-16T02:48:03.238Z,14.68
2022-09-16T02:50:27.961Z,12.05
2022-09-16T02:52:54.028Z,11.68
2022-09-16T02:55:21.885Z,17.05
2022-09-16T02:57:46.474Z,11.45
2022-09-16T03:00:10.638Z,17.45
2022-09-16T03:02:34.350Z,12.93
2022-09-16T03:04:57.664Z,20.65
2022-09-16T03:07:20.842Z,11.07
2022-09-16T03:09:45.159Z,11.38
2022-09-16T03:14:53.218Z,11.73
2022-09-16T03:17:24.432Z,13.20
2022-09-16T03:19:51.412Z,12.35
2022-09-16T03:22:17.735Z,12.38
2022-09-16T03:24:47.296Z,13.77
2022-09-16T03:27:11.585Z,13.32
2022-09-16T03:29:36.372Z,8.18
2022-09-16T03:32:03.562Z,16.13
2022-09-16T03:34:28.229Z,8.18
2022-09-16T03:36:52.872Z,21.17
2022-09-16T03:39:16.054Z,19.70
2022-09-16T03:41:39.212Z,10.70
2022-09-16T03:44:04.272Z,16.80
2022-09-16T03:46:28.992Z,15.52
2022-09-16T03:48:53.676Z,8.45
2022-09-16T03:51:16.937Z,12.40
2022-09-16T03:53:40.190Z,10.55
2022-09-16T03:56:03.714Z,13.93
2022-09-16T03:58:26.846Z,15.13
2022-09-16T04:00:51.857Z,9.82
2022-09-16T04:03:15.046Z,19.70
2022-09-16T04:05:39.630Z,11.88
2022-09-16T04:08:03.059Z,13.30
2022-09-16T04:10:26.203Z,15.85
2022-09-16T04:12:49.413Z,9.68
2022-09-16T04:15:12.955Z,10.38
2022-09-16T04:17:36.152Z,16.53
2022-09-16T04:19:59.319Z,18.17
2022-09-16T04:22:23.873Z,13.75
2022-09-16T04:24:47.153Z,20.08
2022-09-16T04:27:10.325Z,27.67
2022-09-16T04:29:33.573Z,13.95
2022-09-16T04:31:56.798Z,30.63
2022-09-16T04:34:20.164Z,11.65
2022-09-16T04:36:43.338Z,21.23
2022-09-16T04:39:07.886Z,15.93
2022-09-16T04:41:31.059Z,23.48
2022-09-16T04:43:56.072Z,19.20
2022-09-16T04:46:19.522Z,19.10
2022-09-16T04:48:42.833Z,27.20
2022-09-16T04:51:07.141Z,21.75
2022-09-16T04:53:30.285Z,24.73
2022-09-16T04:55:54.814Z,16.63
2022-09-16T04:58:17.989Z,10.10
2022-09-16T05:00:41.226Z,26.45
2022-09-16T05:03:04.409Z,21.33
2022-09-16T05:05:27.781Z,20.23
2022-09-16T05:07:50.930Z,28.08
2022-09-16T05:10:14.293Z,17.77
2022-09-16T05:12:38.797Z,20.23
2022-09-16T05:15:01.990Z,16.52
2022-09-16T05:17:49.417Z,21.65
2022-09-16T05:20:08.938Z,41.22
2022-09-16T05:22:32.120Z,42.25
2022-09-16T05:24:55.230Z,33.80
2022-09-16T05:27:18.465Z,27.10
2022-09-16T05:29:43.019Z,35.08
2022-09-16T05:32:06.379Z,34.80
2022-09-16T05:34:29.805Z,22.70
2022-09-16T05:36:54.170Z,28.05
2022-09-16T05:41:47.162Z,29.10
2022-09-16T05:44:10.331Z,33.88
2022-09-16T05:46:35.158Z,33.13
2022-09-16T05:48:58.303Z,42.85
2022-09-16T05:51:22.370Z,29.65
2022-09-16T05:53:45.786Z,33.38
2022-09-16T05:56:10.103Z,36.63
2022-09-16T06:00:59.823Z,41.05
2022-09-16T06:03:24.425Z,33.75
2022-09-16T06:05:47.563Z,30.98
2022-09-16T06:08:10.834Z,35.63
2022-09-16T06:10:37.999Z,42.33
2022-09-16T06:13:01.136Z,25.15
2022-09-16T06:15:24.459Z,25.63
2022-09-16T06:17:47.628Z,23.40
2022-09-16T06:20:14.789Z,40.72
2022-09-16T06:22:37.935Z,27.38
2022-09-16T06:25:01.178Z,35.83
2022-09-16T06:27:24.342Z,34.60
2022-09-16T06:29:47.534Z,57.50
2022-09-16T06:32:10.677Z,46.53
2022-09-16T06:34:33.874Z,41.55
2022-09-16T06:36:58.358Z,23.33
2022-09-16T06:39:23.078Z,32.53
2022-09-16T06:41:46.246Z,30.92
2022-09-16T06:44:09.501Z,34.67
2022-09-16T06:46:32.705Z,22.27
2022-09-16T06:48:58.701Z,28.50
2022-09-16T06:51:24.687Z,39.88
2022-09-16T06:56:14.102Z,22.30
2022-09-16T06:58:37.416Z,39.72
2022-09-16T07:01:00.758Z,33.28
2022-09-16T07:03:23.889Z,26.63
2022-09-16T07:05:56.997Z,33.55
2022-09-16T07:08:20.217Z,28.20
2022-09-16T07:10:44.767Z,26.15
2022-09-16T07:13:07.976Z,30.60
2022-09-16T07:15:31.167Z,21.80
2022-09-16T07:17:55.220Z,22.23
2022-09-16T07:20:18.459Z,25.90
2022-09-16T07:22:41.613Z,35.60
2022-09-16T07:25:05.205Z,24.75
2022-09-16T07:27:29.845Z,30.45
2022-09-16T07:29:53.895Z,42.83
2022-09-16T07:32:17.109Z,37.08
2022-09-16T07:34:40.421Z,38.95
2022-09-16T07:37:03.617Z,40.70
2022-09-16T07:39:27.190Z,56.25
2022-09-16T07:41:50.414Z,40.63
2022-09-16T07:44:17.004Z,41.15
2022-09-16T07:46:40.192Z,41.95
2022-09-16T07:49:05.677Z,25.27
2022-09-16T07:53:54.861Z,23.58
2022-09-16T07:56:18.857Z,22.88
2022-09-16T07:58:42.017Z,19.10
2022-09-16T08:01:07.993Z,22.40
2022-09-16T08:03:31.199Z,31.38
2022-09-16T08:05:54.409Z,28.63
2022-09-16T08:08:17.582Z,27.75
2022-09-16T08:10:41.333Z,30.08
2022-09-16T08:13:04.566Z,29.50
2022-09-16T08:15:27.763Z,49.35
2022-09-16T08:17:52.404Z,23.92
2022-09-16T08:20:15.957Z,32.10
2022-09-16T08:22:39.119Z,23.87
2022-09-16T08:25:02.371Z,43.80
2022-09-16T08:27:25.578Z,30.00
2022-09-16T08:29:49.016Z,38.78
2022-09-16T08:32:12.218Z,57.30
2022-09-16T08:34:36.729Z,34.90
2022-09-16T08:37:00.045Z,37.38
2022-09-16T08:39:23.184Z,27.55
2022-09-16T08:42:03.479Z,27.73
2022-09-16T08:44:32.266Z,29.67
2022-09-16T08:46:57.326Z,29.42
2022-09-16T08:49:26.876Z,31.90
2022-09-16T08:51:51.466Z,36.47
2022-09-16T08:54:19.546Z,30.00
2022-09-16T08:56:45.004Z,32.92
2022-09-16T08:59:24.640Z,40.70
2022-09-16T09:01:51.785Z,27.25
2022-09-16T09:04:15.382Z,12.38
2022-09-16T09:06:48.541Z,22.48
2022-09-16T09:09:31.472Z,40.95
2022-09-16T09:11:57.600Z,30.75
2022-09-16T09:14:29.507Z,31.02
2022-09-16T09:16:55.073Z,26.02
2022-09-16T09:19:29.205Z,18.23
2022-09-16T09:21:57.294Z,31.20
2022-09-16T09:24:29.577Z,32.38
2022-09-16T09:26:53.513Z,24.35
2022-09-16T09:29:27.770Z,21.40
2022-09-16T09:31:55.040Z,22.45
2022-09-16T09:34:26.647Z,25.63
2022-09-16T09:36:57.871Z,21.58
2022-09-16T09:39:32.612Z,16.88
2022-09-16T09:44:38.340Z,23.23
2022-09-16T09:47:04.190Z,21.23
2022-09-16T09:49:28.915Z,27.00
2022-09-16T09:51:54.903Z,17.95
2022-09-16T09:54:24.672Z,23.15
2022-09-16T09:56:49.203Z,21.92
2022-09-16T09:59:16.491Z,24.98
2022-09-16T10:01:39.679Z,18.98
2022-09-16T10:04:04.238Z,29.73
2022-09-16T10:06:29.027Z,39.08
2022-09-16T10:08:52.953Z,21.00
2022-09-16T10:11:17.857Z,47.42
2022-09-16T10:13:48.799Z,29.65
2022-09-16T10:16:15.225Z,23.70
2022-09-16T10:18:38.442Z,21.08
2022-09-16T10:21:04.801Z,24.20
2022-09-16T10:23:30.242Z,32.13
2022-09-16T10:26:05.352Z,21.65
2022-09-16T10:28:28.535Z,22.88
2022-09-16T10:30:54.408Z,13.73
2022-09-16T10:33:19.723Z,38.00
2022-09-16T10:35:42.947Z,27.40
2022-09-16T10:38:07.600Z,18.17
2022-09-16T10:40:30.886Z,24.73
2022-09-16T10:42:55.041Z,30.13
2022-09-16T10:45:24.245Z,17.63
2022-09-16T10:47:51.465Z,16.90
2022-09-16T10:50:17.622Z,15.95
2022-09-16T10:52:42.878Z,29.15
2022-09-16T10:55:13.082Z,19.30
2022-09-16T10:57:40.305Z,34.35
2022-09-16T11:00:09.729Z,16.90
2022-09-16T11:02:53.893Z,27.88
2022-09-16T11:05:21.603Z,24.43
2022-09-16T11:07:49.170Z,19.38
2022-09-16T11:10:16.961Z,29.45
2022-09-16T11:12:51.982Z,13.55
2022-09-16T11:15:22.156Z,20.13
2022-09-16T11:17:55.610Z,20.38
2022-09-16T11:20:34.348Z,18.77
2022-09-16T11:23:01.095Z,22.40
2022-09-16T11:25:46.077Z,19.02
2022-09-16T11:30:40.714Z,21.95
2022-09-16T11:35:58.481Z,16.90
2022-09-16T11:38:25.060Z,19.98
2022-09-16T11:40:49.020Z,30.08
2022-09-16T11:43:40.745Z,18.95
2022-09-16T11:46:06.830Z,19.95
2022-09-16T11:48:40.333Z,33.47
2022-09-16T11:51:07.353Z,21.20
2022-09-16T11:53:58.333Z,18.50
2022-09-16T11:56:26.863Z,24.83
2022-09-16T11:58:51.789Z,21.17
2022-09-16T12:01:20.914Z,17.15
2022-09-16T12:03:47.942Z,21.08
2022-09-16T12:06:12.765Z,16.77
2022-09-16T12:08:41.867Z,21.23
2022-09-16T12:11:06.938Z,22.95
2022-09-16T12:13:31.054Z,16.83
2022-09-16T12:15:55.535Z,18.27
2022-09-16T12:18:20.504Z,23.30
2022-09-16T12:20:46.553Z,22.20
2022-09-16T12:23:15.662Z,21.63
2022-09-16T12:25:45.456Z,21.25
2022-09-16T12:28:13.862Z,16.40
2022-09-16T12:30:38.089Z,19.95
2022-09-16T12:35:28.881Z,20.53
2022-09-16T12:37:54.560Z,26.10
2022-09-16T12:40:20.379Z,17.35
2022-09-16T12:43:02.564Z,19.92
2022-09-16T12:45:52.198Z,24.45
2022-09-16T12:48:25.422Z,29.83
2022-09-16T12:50:57.095Z,21.25
2022-09-16T12:53:51.018Z,18.20
2022-09-16T12:56:16.033Z,17.60
2022-09-16T12:58:50.185Z,17.45
2022-09-16T13:01:18.524Z,19.20
2022-09-16T13:03:43.034Z,15.52
2022-09-16T13:06:07.350Z,12.00
2022-09-16T13:11:25.601Z,18.30
2022-09-16T13:13:44.154Z,18.75
2022-09-16T13:16:08.280Z,12.30
2022-09-16T13:18:43.766Z,22.27
2022-09-16T13:21:08.309Z,10.50
2022-09-16T13:23:32.967Z,16.05
2022-09-16T13:25:59.631Z,19.23
2022-09-16T13:28:29.054Z,14.13
2022-09-16T13:30:52.371Z,9.40
2022-09-16T13:33:28.818Z,20.20
2022-09-16T13:36:05.165Z,21.33
2022-09-16T13:38:38.799Z,19.83
2022-09-16T13:41:03.425Z,13.98
2022-09-16T13:43:31.400Z,17.45
2022-09-16T13:46:02.462Z,13.57
2022-09-16T13:48:26.261Z,24.88
2022-09-16T13:50:53.025Z,20.05
2022-09-16T13:53:29.890Z,18.67
2022-09-16T13:55:53.037Z,18.98
2022-09-16T13:58:20.549Z,22.10
2022-09-16T14:00:48.835Z,12.43
2022-09-16T14:03:34.660Z,22.95
2022-09-16T14:06:06.830Z,15.63
2022-09-16T14:08:34.375Z,40.70
2022-09-16T14:10:59.354Z,13.23
2022-09-16T14:13:24.525Z,15.18
2022-09-16T14:15:49.399Z,11.02
2022-09-16T14:18:14.156Z,17.83
2022-09-16T14:20:37.413Z,20.73
2022-09-16T14:23:04.638Z,32.90
2022-09-16T14:25:32.152Z,25.77
2022-09-16T14:28:08.608Z,17.10
2022-09-16T14:30:33.342Z,22.55
2022-09-16T14:32:56.546Z,28.30
2022-09-16T14:35:21.023Z,10.13
2022-09-16T14:40:13.017Z,13.88
2022-09-16T14:42:36.309Z,10.25
2022-09-16T14:44:59.452Z,19.85
2022-09-16T14:47:39.805Z,18.58
2022-09-16T14:50:25.155Z,9.07
2022-09-16T14:52:54.494Z,14.23
2022-09-16T14:55:20.555Z,14.70
2022-09-16T14:57:43.841Z,16.55
2022-09-16T15:00:11.670Z,13.60
2022-09-16T15:02:38.923Z,16.17
2022-09-16T15:05:18.062Z,15.27
2022-09-16T15:07:50.863Z,19.42
2022-09-16T15:10:25.309Z,12.60
2022-09-16T15:12:52.939Z,9.65
2022-09-16T15:15:17.823Z,15.63
2022-09-16T15:17:42.405Z,17.52
2022-09-16T15:20:06.226Z,11.50
2022-09-16T15:22:29.450Z,28.38
2022-09-16T15:24:53.945Z,21.42
2022-09-16T15:27:22.316Z,24.80
2022-09-16T15:29:49.229Z,15.68
2022-09-16T15:32:24.173Z,15.55
2022-09-16T15:34:49.762Z,22.42
2022-09-16T15:37:30.625Z,16.10
2022-09-16T15:39:53.805Z,15.38
2022-09-16T15:42:18.963Z,13.50
2022-09-16T15:44:45.118Z,20.33
2022-09-16T15:47:19.969Z,19.17
2022-09-16T15:49:43.198Z,14.85
2022-09-16T15:52:09.393Z,21.67
2022-09-16T15:54:33.799Z,13.95
2022-09-16T15:57:02.137Z,15.23
2022-09-16T15:59:30.897Z,20.92
2022-09-16T16:01:55.247Z,13.77
2022-09-16T16:04:24.117Z,14.85
2022-09-16T16:06:52.608Z,14.20
2022-09-16T16:09:45.026Z,13.93
2022-09-16T16:12:10.139Z,12.57
2022-09-16T16:14:33.834Z,16.30
2022-09-16T16:17:12.247Z,14.38
2022-09-16T16:19:36.501Z,16.33
2022-09-16T16:22:00.371Z,16.52
2022-09-16T16:24:23.683Z,16.88
2022-09-16T16:26:48.232Z,10.75
2022-09-16T16:29:11.430Z,14.73
2022-09-16T16:31:35.363Z,15.43
2022-09-16T16:33:58.673Z,23.13
2022-09-16T16:36:22.190Z,22.98
2022-09-16T16:38:46.395Z,25.40
2022-09-16T16:43:34.052Z,22.15
2022-09-16T16:45:57.425Z,18.27
2022-09-16T16:48:20.742Z,22.47
2022-09-16T16:50:43.996Z,25.42
2022-09-16T16:53:07.469Z,24.27
2022-09-16T16:55:31.112Z,17.20
2022-09-16T16:57:54.350Z,30.42
2022-09-16T17:00:19.514Z,26.10
2022-09-16T17:02:42.671Z,28.35
2022-09-16T17:05:06.482Z,30.20
2022-09-16T17:07:30.169Z,23.85
2022-09-16T17:09:53.565Z,40.10
2022-09-16T17:12:18.084Z,22.33
2022-09-16T17:14:42.230Z,26.10
2022-09-16T17:17:06.830Z,29.23
2022-09-16T17:19:31.022Z,20.98
2022-09-16T17:24:18.045Z,26.48
2022-09-16T17:26:41.178Z,30.23
2022-09-16T17:29:11.712Z,29.67
2022-09-16T17:31:40.232Z,24.88
2022-09-16T17:34:06.377Z,25.48
2022-09-16T17:36:29.739Z,23.67
2022-09-16T17:38:57.362Z,26.30
2022-09-16T17:41:22.498Z,41.88
2022-09-16T17:43:46.002Z,36.05
2022-09-16T17:46:14.144Z,25.25
2022-09-16T17:48:38.073Z,22.60
2022-09-16T17:51:02.639Z,30.40
2022-09-16T17:53:26.201Z,23.70
2022-09-16T17:55:49.873Z,25.23
2022-09-16T17:58:13.022Z,21.58
2022-09-16T18:00:37.551Z,21.27
2022-09-16T18:03:00.821Z,25.58
2022-09-16T18:05:29.321Z,30.10
2022-09-16T18:07:54.561Z,21.23
2022-09-16T18:10:18.075Z,30.77
2022-09-16T18:12:41.255Z,33.88
2022-09-16T18:15:04.934Z,21.23
2022-09-16T18:17:28.437Z,25.48
2022-09-16T18:19:51.847Z,22.80
2022-09-16T18:22:15.374Z,19.80
2022-09-16T18:24:40.145Z,20.60
2022-09-16T18:27:03.429Z,23.33
2022-09-16T18:29:26.603Z,36.35
2022-09-16T18:31:49.955Z,31.98
2022-09-16T18:34:13.562Z,24.88
2022-09-16T18:36:37.777Z,17.58
2022-09-16T18:39:01.923Z,28.23
2022-09-16T18:41:27.278Z,21.52
2022-09-16T18:43:53.514Z,13.10
2022-09-16T18:46:17.892Z,26.63
2022-09-16T18:48:42.784Z,14.55
2022-09-16T18:51:06.440Z,18.27
2022-09-16T18:53:29.723Z,18.43
2022-09-16T18:55:53.972Z,18.77
2022-09-16T18:58:18.511Z,15.60
2022-09-16T19:00:41.959Z,21.17
2022-09-16T19:03:05.207Z,22.48
2022-09-16T19:05:28.715Z,19.70
2022-09-16T19:07:51.886Z,28.63
2022-09-16T19:10:15.098Z,22.08
2022-09-16T19:12:39.348Z,18.80
2022-09-16T19:15:04.190Z,23.75
2022-09-16T19:17:27.892Z,15.35
2022-09-16T19:19:52.180Z,17.35
2022-09-16T19:24:38.789Z,22.95
2022-09-16T19:27:02.193Z,22.10
2022-09-16T19:29:25.598Z,20.63
2022-09-16T19:31:51.986Z,20.83
2022-09-16T19:34:16.063Z,21.33
2022-09-16T19:36:39.514Z,22.38
2022-09-16T19:39:02.752Z,23.93
2022-09-16T19:41:28.225Z,18.38
2022-09-16T19:43:54.413Z,17.55
2022-09-16T19:46:19.369Z,25.42
2022-09-16T19:48:45.828Z,21.27
2022-09-16T19:51:10.682Z,19.20
2022-09-16T19:53:34.783Z,19.77
2022-09-16T19:58:21.942Z,12.15
2022-09-16T20:00:55.775Z,14.50
2022-09-16T20:03:19.374Z,22.65
2022-09-16T20:05:43.962Z,21.90
2022-09-16T20:08:07.375Z,17.05
2022-09-16T20:10:30.579Z,17.97
2022-09-16T20:12:58.683Z,17.63
2022-09-16T20:15:22.667Z,19.38
2022-09-16T20:17:45.893Z,20.58
2022-09-16T20:20:09.452Z,13.68
2022-09-16T20:22:34.081Z,14.48
2022-09-16T20:25:18.727Z,14.85
2022-09-16T20:27:40.493Z,18.38
2022-09-16T20:30:03.874Z,21.58
2022-09-16T20:32:27.157Z,13.73
2022-09-16T20:34:50.300Z,17.33
2022-09-16T20:37:13.541Z,16.48
2022-09-16T20:39:38.086Z,13.38
2022-09-16T20:42:01.274Z,20.38
2022-09-16T20:44:24.519Z,14.48
2022-09-16T20:46:48.978Z,11.68
2022-09-16T20:49:15.200Z,16.92
2022-09-16T20:51:38.518Z,12.65
2022-09-16T20:54:07.311Z,10.85
2022-09-16T20:56:38.012Z,20.85
2022-09-16T20:59:02.028Z,12.98
2022-09-16T21:01:25.970Z,13.88
2022-09-16T21:03:51.698Z,14.20
2022-09-16T21:06:15.769Z,20.25
2022-09-16T21:08:38.975Z,15.43
2022-09-16T21:11:05.592Z,19.92
2022-09-16T21:13:31.265Z,24.00
2022-09-16T21:15:57.554Z,20.88
2022-09-16T21:18:22.322Z,19.05
2022-09-16T21:20:45.571Z,20.25
2022-09-16T21:23:08.830Z,18.60
2022-09-16T21:25:32.942Z,18.58
2022-09-16T21:27:56.316Z,25.08
2022-09-16T21:30:20.843Z,20.67
2022-09-16T21:32:44.132Z,15.48
2022-09-16T21:35:08.037Z,22.92
2022-09-16T21:37:31.254Z,22.52
2022-09-16T21:39:54.499Z,15.32
2022-09-16T21:42:17.726Z,18.60
2022-09-16T21:44:40.918Z,22.02
2022-09-16T21:47:08.041Z,18.10
2022-09-16T21:49:32.655Z,20.42
2022-09-16T21:51:56.510Z,14.52
2022-09-16T21:54:20.588Z,29.50
2022-09-16T21:56:43.906Z,11.45
2022-09-16T21:59:07.334Z,16.60
2022-09-16T22:01:31.607Z,18.85
2022-09-16T22:06:19.575Z,11.32
2022-09-16T22:08:48.577Z,16.92
2022-09-16T22:11:13.590Z,17.70
2022-09-16T22:13:36.906Z,18.10
2022-09-16T22:16:00.231Z,16.88
2022-09-16T22:18:23.793Z,15.25
2022-09-16T22:20:48.519Z,11.07
2022-09-16T22:23:11.788Z,19.42
2022-09-16T22:25:36.172Z,11.18
2022-09-16T22:30:22.460Z,6.80
2022-09-16T22:32:45.713Z,21.73
2022-09-16T22:35:10.001Z,20.25
2022-09-16T22:37:34.595Z,23.23
2022-09-16T22:39:57.939Z,17.77
2022-09-16T22:42:21.194Z,16.40
2022-09-16T22:44:44.400Z,15.68
2022-09-16T22:47:07.827Z,15.95
2022-09-16T22:49:31.188Z,16.85
2022-09-16T22:51:54.421Z,15.50
2022-09-16T22:54:19.173Z,21.00
2022-09-16T22:56:42.640Z,14.68
2022-09-16T22:59:08.340Z,15.70
2022-09-16T23:01:32.987Z,21.55
2022-09-16T23:03:57.207Z,15.07
2022-09-16T23:08:45.371Z,22.27
2022-09-16T23:11:13.270Z,18.35
2022-09-16T23:13:42.057Z,12.77
2022-09-16T23:16:06.267Z,16.05
2022-09-16T23:18:29.589Z,20.50
2022-09-16T23:20:59.709Z,15.50
2022-09-16T23:23:23.032Z,12.73
2022-09-16T23:25:46.229Z,19.35
2022-09-16T23:28:10.897Z,12.68
2022-09-16T23:30:34.194Z,16.88
2022-09-16T23:32:57.512Z,17.75
2022-09-16T23:35:20.765Z,8.10
2022-09-16T23:37:44.053Z,16.00
2022-09-16T23:40:08.683Z,15.75
2022-09-16T23:42:31.977Z,15.98
2022-09-16T23:44:56.571Z,16.70
2022-09-16T23:47:19.868Z,17.67
2022-09-16T23:49:43.365Z,16.40
2022-09-16T23:52:06.558Z,19.77
2022-09-16T23:54:29.826Z,13.43
2022-09-16T23:56:53.005Z,15.82
2022-09-16T23:59:16.454Z,23.83
